sensor_id;sensor_type;location;lat;lon;timestamp;temperature;humidity
42885;DHT22;28534;48.100;11.584;2023-03-03T00:03:15;21.10;56.40
42885;DHT22;28534;48.100;11.584;2023-03-03T00:08:18;21.00;56.40
42885;DHT22;28534;48.100;11.584;2023-03-03T00:13:22;21.00;56.40
42885;DHT22;28534;48.100;11.584;2023-03-03T00:18:27;21.00;56.40
42885;DHT22;28534;48.100;11.584;2023-03-03T00:23:34;21.00;56.50
42885;DHT22;28534;48.100;11.584;2023-03-03T00:28:44;21.00;56.40
42885;DHT22;28534;48.100;11.584;2023-03-03T00:33:48;21.00;56.40
42885;DHT22;28534;48.100;11.584;2023-03-03T00:38:54;21.00;56.50
42885;DHT22;28534;48.100;11.584;2023-03-03T00:43:59;21.00;56.40
42885;DHT22;28534;48.100;11.584;2023-03-03T00:49:04;21.00;56.40
42885;DHT22;28534;48.100;11.584;2023-03-03T00:54:14;21.00;56.50
42885;DHT22;28534;48.100;11.584;2023-03-03T00:59:17;21.00;56.40
42885;DHT22;28534;48.100;11.584;2023-03-03T01:04:19;20.90;56.40
42885;DHT22;28534;48.100;11.584;2023-03-03T01:09:21;20.90;56.50
42885;DHT22;28534;48.100;11.584;2023-03-03T01:14:24;20.90;56.40
42885;DHT22;28534;48.100;11.584;2023-03-03T01:19:26;20.90;56.40
42885;DHT22;28534;48.100;11.584;2023-03-03T01:24:27;20.90;56.40
42885;DHT22;28534;48.100;11.584;2023-03-03T01:29:30;20.90;56.40
42885;DHT22;28534;48.100;11.584;2023-03-03T01:34:32;20.90;56.50
42885;DHT22;28534;48.100;11.584;2023-03-03T01:39:34;20.90;56.40
42885;DHT22;28534;48.100;11.584;2023-03-03T01:44:37;20.90;56.40
42885;DHT22;28534;48.100;11.584;2023-03-03T01:49:41;20.90;56.40
42885;DHT22;28534;48.100;11.584;2023-03-03T01:54:48;20.90;56.50
42885;DHT22;28534;48.100;11.584;2023-03-03T01:59:52;20.90;56.40
42885;DHT22;28534;48.100;11.584;2023-03-03T02:04:56;20.90;56.50
42885;DHT22;28534;48.100;11.584;2023-03-03T02:10:01;20.80;56.40
42885;DHT22;28534;48.100;11.584;2023-03-03T02:15:15;20.80;56.30
42885;DHT22;28534;48.100;11.584;2023-03-03T02:25:49;20.80;56.40
42885;DHT22;28534;48.100;11.584;2023-03-03T02:30:55;20.80;56.30
42885;DHT22;28534;48.100;11.584;2023-03-03T02:35:57;20.80;56.40
42885;DHT22;28534;48.100;11.584;2023-03-03T02:41:03;20.80;56.40
42885;DHT22;28534;48.100;11.584;2023-03-03T02:46:10;20.80;56.40
42885;DHT22;28534;48.100;11.584;2023-03-03T02:51:12;20.80;56.40
42885;DHT22;28534;48.100;11.584;2023-03-03T02:56:14;20.80;56.40
42885;DHT22;28534;48.100;11.584;2023-03-03T03:01:17;20.80;56.40
42885;DHT22;28534;48.100;11.584;2023-03-03T03:06:19;20.80;56.40
42885;DHT22;28534;48.100;11.584;2023-03-03T03:11:21;20.70;56.40
42885;DHT22;28534;48.100;11.584;2023-03-03T03:16:24;20.80;56.40
42885;DHT22;28534;48.100;11.584;2023-03-03T03:21:25;20.70;56.30
42885;DHT22;28534;48.100;11.584;2023-03-03T03:26:27;20.80;56.40
42885;DHT22;28534;48.100;11.584;2023-03-03T03:31:30;20.70;56.40
42885;DHT22;28534;48.100;11.584;2023-03-03T03:36:32;20.70;56.40
42885;DHT22;28534;48.100;11.584;2023-03-03T03:41:34;20.70;56.30
42885;DHT22;28534;48.100;11.584;2023-03-03T03:46:37;20.80;56.20
42885;DHT22;28534;48.100;11.584;2023-03-03T03:51:39;21.00;55.90
42885;DHT22;28534;48.100;11.584;2023-03-03T03:56:41;21.10;55.70
42885;DHT22;28534;48.100;11.584;2023-03-03T04:01:44;21.20;55.40
42885;DHT22;28534;48.100;11.584;2023-03-03T04:06:47;21.30;55.20
42885;DHT22;28534;48.100;11.584;2023-03-03T04:11:49;21.30;55.10
42885;DHT22;28534;48.100;11.584;2023-03-03T04:16:52;21.40;55.00
42885;DHT22;28534;48.100;11.584;2023-03-03T04:21:54;21.50;54.80
42885;DHT22;28534;48.100;11.584;2023-03-03T04:26:56;21.50;54.80
42885;DHT22;28534;48.100;11.584;2023-03-03T04:31:59;21.60;54.50
42885;DHT22;28534;48.100;11.584;2023-03-03T04:37:01;21.70;54.50
42885;DHT22;28534;48.100;11.584;2023-03-03T04:42:03;21.70;54.40
42885;DHT22;28534;48.100;11.584;2023-03-03T04:47:06;21.70;54.40
42885;DHT22;28534;48.100;11.584;2023-03-03T04:52:07;21.80;54.20
42885;DHT22;28534;48.100;11.584;2023-03-03T04:57:09;21.90;54.30
42885;DHT22;28534;48.100;11.584;2023-03-03T05:02:12;21.90;54.10
42885;DHT22;28534;48.100;11.584;2023-03-03T05:07:14;22.00;54.00
42885;DHT22;28534;48.100;11.584;2023-03-03T05:12:17;22.00;54.10
42885;DHT22;28534;48.100;11.584;2023-03-03T05:17:20;22.00;54.10
42885;DHT22;28534;48.100;11.584;2023-03-03T05:22:22;22.10;54.00
42885;DHT22;28534;48.100;11.584;2023-03-03T05:27:24;22.10;54.00
42885;DHT22;28534;48.100;11.584;2023-03-03T05:32:27;22.10;53.80
42885;DHT22;28534;48.100;11.584;2023-03-03T05:37:29;22.10;53.50
42885;DHT22;28534;48.100;11.584;2023-03-03T05:42:31;22.10;53.60
42885;DHT22;28534;48.100;11.584;2023-03-03T05:47:34;22.10;53.80
42885;DHT22;28534;48.100;11.584;2023-03-03T05:52:35;22.10;54.30
42885;DHT22;28534;48.100;11.584;2023-03-03T05:57:37;22.00;55.00
42885;DHT22;28534;48.100;11.584;2023-03-03T06:02:41;22.10;55.60
42885;DHT22;28534;48.100;11.584;2023-03-03T06:07:43;22.10;55.90
42885;DHT22;28534;48.100;11.584;2023-03-03T06:12:45;22.20;55.90
42885;DHT22;28534;48.100;11.584;2023-03-03T06:17:48;22.30;55.60
42885;DHT22;28534;48.100;11.584;2023-03-03T06:22:49;22.30;55.60
42885;DHT22;28534;48.100;11.584;2023-03-03T06:27:51;22.40;55.60
42885;DHT22;28534;48.100;11.584;2023-03-03T06:32:54;22.30;55.90
42885;DHT22;28534;48.100;11.584;2023-03-03T06:37:56;22.30;52.10
42885;DHT22;28534;48.100;11.584;2023-03-03T06:42:58;22.30;52.60
42885;DHT22;28534;48.100;11.584;2023-03-03T06:48:03;22.30;53.00
42885;DHT22;28534;48.100;11.584;2023-03-03T06:53:10;22.40;53.30
42885;DHT22;28534;48.100;11.584;2023-03-03T06:58:14;22.30;52.80
42885;DHT22;28534;48.100;11.584;2023-03-03T07:03:20;22.30;52.60
42885;DHT22;28534;48.100;11.584;2023-03-03T07:08:24;22.20;52.90
42885;DHT22;28534;48.100;11.584;2023-03-03T07:13:27;22.20;52.20
42885;DHT22;28534;48.100;11.584;2023-03-03T07:18:43;22.10;51.60
42885;DHT22;28534;48.100;11.584;2023-03-03T07:23:49;22.20;52.10
42885;DHT22;28534;48.100;11.584;2023-03-03T07:28:53;22.30;52.30
42885;DHT22;28534;48.100;11.584;2023-03-03T07:33:59;22.40;52.60
42885;DHT22;28534;48.100;11.584;2023-03-03T07:39:03;22.40;53.00
42885;DHT22;28534;48.100;11.584;2023-03-03T07:44:18;22.40;53.30
42885;DHT22;28534;48.100;11.584;2023-03-03T07:49:23;22.30;53.50
42885;DHT22;28534;48.100;11.584;2023-03-03T07:54:34;22.40;53.10
42885;DHT22;28534;48.100;11.584;2023-03-03T07:59:37;22.30;53.00
42885;DHT22;28534;48.100;11.584;2023-03-03T08:04:45;22.30;52.90
42885;DHT22;28534;48.100;11.584;2023-03-03T08:09:51;22.30;52.60
42885;DHT22;28534;48.100;11.584;2023-03-03T08:15:13;22.30;52.60
42885;DHT22;28534;48.100;11.584;2023-03-03T08:20:40;22.40;52.40
42885;DHT22;28534;48.100;11.584;2023-03-03T08:25:43;22.30;52.30
42885;DHT22;28534;48.100;11.584;2023-03-03T08:30:45;22.40;52.20
42885;DHT22;28534;48.100;11.584;2023-03-03T08:35:48;22.40;52.20
42885;DHT22;28534;48.100;11.584;2023-03-03T08:40:50;22.40;52.10
42885;DHT22;28534;48.100;11.584;2023-03-03T08:45:54;22.40;52.40
42885;DHT22;28534;48.100;11.584;2023-03-03T08:51:00;22.40;52.40
42885;DHT22;28534;48.100;11.584;2023-03-03T08:56:02;22.30;52.80
42885;DHT22;28534;48.100;11.584;2023-03-03T09:01:04;22.30;53.10
42885;DHT22;28534;48.100;11.584;2023-03-03T09:06:07;22.40;53.10
42885;DHT22;28534;48.100;11.584;2023-03-03T09:11:11;22.50;53.20
42885;DHT22;28534;48.100;11.584;2023-03-03T09:16:14;22.50;53.40
42885;DHT22;28534;48.100;11.584;2023-03-03T09:21:22;22.50;53.50
42885;DHT22;28534;48.100;11.584;2023-03-03T09:26:30;22.40;53.10
42885;DHT22;28534;48.100;11.584;2023-03-03T09:31:38;22.40;53.20
42885;DHT22;28534;48.100;11.584;2023-03-03T09:36:42;22.40;53.30
42885;DHT22;28534;48.100;11.584;2023-03-03T09:42:12;22.40;53.20
42885;DHT22;28534;48.100;11.584;2023-03-03T09:47:31;22.30;53.40
42885;DHT22;28534;48.100;11.584;2023-03-03T09:52:41;22.40;53.40
42885;DHT22;28534;48.100;11.584;2023-03-03T09:57:58;22.40;53.30
42885;DHT22;28534;48.100;11.584;2023-03-03T10:03:22;22.50;52.90
42885;DHT22;28534;48.100;11.584;2023-03-03T10:08:36;22.40;53.10
42885;DHT22;28534;48.100;11.584;2023-03-03T10:13:52;22.40;53.50
42885;DHT22;28534;48.100;11.584;2023-03-03T10:19:01;22.40;53.60
42885;DHT22;28534;48.100;11.584;2023-03-03T10:24:18;22.40;53.80
42885;DHT22;28534;48.100;11.584;2023-03-03T10:29:30;22.40;54.00
42885;DHT22;28534;48.100;11.584;2023-03-03T10:34:59;22.30;53.70
42885;DHT22;28534;48.100;11.584;2023-03-03T10:40:15;22.30;53.70
42885;DHT22;28534;48.100;11.584;2023-03-03T10:45:41;22.40;53.60
42885;DHT22;28534;48.100;11.584;2023-03-03T10:50:50;22.40;53.60
42885;DHT22;28534;48.100;11.584;2023-03-03T10:56:21;22.50;53.60
42885;DHT22;28534;48.100;11.584;2023-03-03T11:01:38;22.50;53.90
42885;DHT22;28534;48.100;11.584;2023-03-03T11:06:45;22.40;54.00
42885;DHT22;28534;48.100;11.584;2023-03-03T11:11:54;22.40;54.10
42885;DHT22;28534;48.100;11.584;2023-03-03T11:17:03;22.40;54.00
42885;DHT22;28534;48.100;11.584;2023-03-03T11:22:18;22.30;54.00
42885;DHT22;28534;48.100;11.584;2023-03-03T11:33:00;22.40;54.20
42885;DHT22;28534;48.100;11.584;2023-03-03T11:38:23;22.40;54.20
42885;DHT22;28534;48.100;11.584;2023-03-03T11:43:31;22.50;54.10
42885;DHT22;28534;48.100;11.584;2023-03-03T11:48:39;22.40;55.00
42885;DHT22;28534;48.100;11.584;2023-03-03T11:53:53;22.40;54.50
42885;DHT22;28534;48.100;11.584;2023-03-03T11:59:24;22.40;54.70
42885;DHT22;28534;48.100;11.584;2023-03-03T12:04:33;21.80;47.90
42885;DHT22;28534;48.100;11.584;2023-03-03T12:09:44;21.30;47.40
42885;DHT22;28534;48.100;11.584;2023-03-03T12:15:01;21.80;47.50
42885;DHT22;28534;48.100;11.584;2023-03-03T12:20:11;22.20;48.80
42885;DHT22;28534;48.100;11.584;2023-03-03T12:25:22;22.30;49.90
42885;DHT22;28534;48.100;11.584;2023-03-03T12:30:58;22.40;50.40
42885;DHT22;28534;48.100;11.584;2023-03-03T12:36:12;22.40;50.10
42885;DHT22;28534;48.100;11.584;2023-03-03T12:41:21;22.40;50.60
42885;DHT22;28534;48.100;11.584;2023-03-03T12:46:32;22.40;50.80
42885;DHT22;28534;48.100;11.584;2023-03-03T12:51:47;22.40;51.00
42885;DHT22;28534;48.100;11.584;2023-03-03T12:56:53;22.40;51.30
42885;DHT22;28534;48.100;11.584;2023-03-03T13:02:16;22.40;51.70
42885;DHT22;28534;48.100;11.584;2023-03-03T13:07:24;22.50;52.00
42885;DHT22;28534;48.100;11.584;2023-03-03T13:12:33;22.40;52.20
42885;DHT22;28534;48.100;11.584;2023-03-03T13:17:44;22.40;53.00
42885;DHT22;28534;48.100;11.584;2023-03-03T13:22:53;22.30;52.70
42885;DHT22;28534;48.100;11.584;2023-03-03T13:27:59;22.30;52.70
42885;DHT22;28534;48.100;11.584;2023-03-03T13:33:08;22.30;52.80
42885;DHT22;28534;48.100;11.584;2023-03-03T13:38:12;22.30;52.80
42885;DHT22;28534;48.100;11.584;2023-03-03T13:43:18;22.40;52.80
42885;DHT22;28534;48.100;11.584;2023-03-03T13:48:35;22.50;52.70
42885;DHT22;28534;48.100;11.584;2023-03-03T13:53:43;22.50;52.70
42885;DHT22;28534;48.100;11.584;2023-03-03T13:58:51;22.50;52.70
42885;DHT22;28534;48.100;11.584;2023-03-03T14:04:05;22.50;52.70
42885;DHT22;28534;48.100;11.584;2023-03-03T14:09:26;22.50;52.90
42885;DHT22;28534;48.100;11.584;2023-03-03T14:14:44;22.50;53.00
42885;DHT22;28534;48.100;11.584;2023-03-03T14:19:52;22.60;53.30
42885;DHT22;28534;48.100;11.584;2023-03-03T14:25:01;22.60;53.40
42885;DHT22;28534;48.100;11.584;2023-03-03T14:30:27;22.60;52.90
42885;DHT22;28534;48.100;11.584;2023-03-03T14:35:33;22.60;52.70
42885;DHT22;28534;48.100;11.584;2023-03-03T14:40:36;22.60;52.70
42885;DHT22;28534;48.100;11.584;2023-03-03T14:45:39;22.60;52.80
42885;DHT22;28534;48.100;11.584;2023-03-03T14:50:51;22.60;53.00
42885;DHT22;28534;48.100;11.584;2023-03-03T14:55:53;22.60;53.30
42885;DHT22;28534;48.100;11.584;2023-03-03T15:01:16;22.70;53.50
42885;DHT22;28534;48.100;11.584;2023-03-03T15:06:35;22.70;53.90
42885;DHT22;28534;48.100;11.584;2023-03-03T15:11:37;22.60;54.20
42885;DHT22;28534;48.100;11.584;2023-03-03T15:16:39;22.60;54.50
42885;DHT22;28534;48.100;11.584;2023-03-03T15:21:55;22.50;54.70
42885;DHT22;28534;48.100;11.584;2023-03-03T15:27:03;22.50;55.10
42885;DHT22;28534;48.100;11.584;2023-03-03T15:32:12;22.40;55.30
42885;DHT22;28534;48.100;11.584;2023-03-03T15:37:30;22.40;55.30
42885;DHT22;28534;48.100;11.584;2023-03-03T15:42:39;22.50;55.50
42885;DHT22;28534;48.100;11.584;2023-03-03T15:48:04;22.50;55.60
42885;DHT22;28534;48.100;11.584;2023-03-03T15:53:20;22.60;55.70
42885;DHT22;28534;48.100;11.584;2023-03-03T16:04:18;22.60;60.10
42885;DHT22;28534;48.100;11.584;2023-03-03T16:09:35;22.60;59.00
42885;DHT22;28534;48.100;11.584;2023-03-03T16:14:50;22.60;59.90
42885;DHT22;28534;48.100;11.584;2023-03-03T16:20:00;22.50;63.10
42885;DHT22;28534;48.100;11.584;2023-03-03T16:25:46;22.60;62.10
42885;DHT22;28534;48.100;11.584;2023-03-03T16:30:59;22.70;62.00
42885;DHT22;28534;48.100;11.584;2023-03-03T16:36:07;22.60;61.70
42885;DHT22;28534;48.100;11.584;2023-03-03T16:41:19;22.60;60.20
42885;DHT22;28534;48.100;11.584;2023-03-03T16:46:30;22.60;60.10
42885;DHT22;28534;48.100;11.584;2023-03-03T16:51:40;22.60;59.90
42885;DHT22;28534;48.100;11.584;2023-03-03T16:56:53;22.60;59.80
42885;DHT22;28534;48.100;11.584;2023-03-03T17:02:11;22.50;60.10
42885;DHT22;28534;48.100;11.584;2023-03-03T17:07:24;22.40;60.20
42885;DHT22;28534;48.100;11.584;2023-03-03T17:12:41;22.40;59.60
42885;DHT22;28534;48.100;11.584;2023-03-03T17:17:54;22.40;57.90
42885;DHT22;28534;48.100;11.584;2023-03-03T17:23:21;22.30;56.20
42885;DHT22;28534;48.100;11.584;2023-03-03T17:28:34;22.40;56.40
42885;DHT22;28534;48.100;11.584;2023-03-03T17:33:49;22.40;54.30
42885;DHT22;28534;48.100;11.584;2023-03-03T17:39:03;22.40;53.60
42885;DHT22;28534;48.100;11.584;2023-03-03T17:44:15;22.30;53.40
42885;DHT22;28534;48.100;11.584;2023-03-03T17:49:53;22.20;53.70
42885;DHT22;28534;48.100;11.584;2023-03-03T17:55:22;22.10;53.70
42885;DHT22;28534;48.100;11.584;2023-03-03T18:00:41;22.10;53.90
42885;DHT22;28534;48.100;11.584;2023-03-03T18:06:00;22.00;53.90
42885;DHT22;28534;48.100;11.584;2023-03-03T18:11:14;22.00;54.00
42885;DHT22;28534;48.100;11.584;2023-03-03T18:16:29;21.90;54.30
42885;DHT22;28534;48.100;11.584;2023-03-03T18:21:37;21.90;54.30
42885;DHT22;28534;48.100;11.584;2023-03-03T18:26:43;21.90;54.20
42885;DHT22;28534;48.100;11.584;2023-03-03T18:31:49;21.90;54.60
42885;DHT22;28534;48.100;11.584;2023-03-03T18:37:02;21.80;54.80
42885;DHT22;28534;48.100;11.584;2023-03-03T18:48:06;21.80;55.10
42885;DHT22;28534;48.100;11.584;2023-03-03T18:53:18;21.70;55.20
42885;DHT22;28534;48.100;11.584;2023-03-03T18:58:36;21.60;49.60
42885;DHT22;28534;48.100;11.584;2023-03-03T19:04:00;20.80;43.70
42885;DHT22;28534;48.100;11.584;2023-03-03T19:09:04;20.40;41.10
42885;DHT22;28534;48.100;11.584;2023-03-03T19:14:30;20.50;44.80
42885;DHT22;28534;48.100;11.584;2023-03-03T19:20:06;20.90;46.40
42885;DHT22;28534;48.100;11.584;2023-03-03T19:25:19;21.10;47.10
42885;DHT22;28534;48.100;11.584;2023-03-03T19:30:41;21.20;47.60
42885;DHT22;28534;48.100;11.584;2023-03-03T19:35:55;21.20;48.10
42885;DHT22;28534;48.100;11.584;2023-03-03T19:41:08;21.20;48.60
42885;DHT22;28534;48.100;11.584;2023-03-03T19:46:24;21.20;49.10
42885;DHT22;28534;48.100;11.584;2023-03-03T19:51:33;21.20;49.30
42885;DHT22;28534;48.100;11.584;2023-03-03T19:56:41;21.30;49.50
42885;DHT22;28534;48.100;11.584;2023-03-03T20:01:53;21.20;49.80
42885;DHT22;28534;48.100;11.584;2023-03-03T20:07:08;21.20;50.10
42885;DHT22;28534;48.100;11.584;2023-03-03T20:12:25;21.20;50.40
42885;DHT22;28534;48.100;11.584;2023-03-03T20:17:47;21.20;50.70
42885;DHT22;28534;48.100;11.584;2023-03-03T20:22:59;21.20;50.90
42885;DHT22;28534;48.100;11.584;2023-03-03T20:28:10;21.20;51.30
42885;DHT22;28534;48.100;11.584;2023-03-03T20:33:39;21.20;51.30
42885;DHT22;28534;48.100;11.584;2023-03-03T20:38:53;21.20;51.50
42885;DHT22;28534;48.100;11.584;2023-03-03T20:44:06;21.20;51.60
42885;DHT22;28534;48.100;11.584;2023-03-03T20:49:26;21.20;51.90
42885;DHT22;28534;48.100;11.584;2023-03-03T20:54:37;21.20;52.00
42885;DHT22;28534;48.100;11.584;2023-03-03T20:59:46;21.20;52.20
42885;DHT22;28534;48.100;11.584;2023-03-03T21:05:08;21.20;52.30
42885;DHT22;28534;48.100;11.584;2023-03-03T21:10:14;21.20;52.50
42885;DHT22;28534;48.100;11.584;2023-03-03T21:15:28;21.20;52.60
42885;DHT22;28534;48.100;11.584;2023-03-03T21:20:31;21.20;52.80
42885;DHT22;28534;48.100;11.584;2023-03-03T21:25:49;21.20;52.80
42885;DHT22;28534;48.100;11.584;2023-03-03T21:31:07;21.20;52.90
42885;DHT22;28534;48.100;11.584;2023-03-03T21:36:10;21.20;53.00
42885;DHT22;28534;48.100;11.584;2023-03-03T21:41:14;21.20;53.20
42885;DHT22;28534;48.100;11.584;2023-03-03T21:46:17;21.20;53.40
42885;DHT22;28534;48.100;11.584;2023-03-03T21:51:19;21.10;53.40
42885;DHT22;28534;48.100;11.584;2023-03-03T21:56:25;21.10;53.60
42885;DHT22;28534;48.100;11.584;2023-03-03T22:01:26;21.10;53.60
42885;DHT22;28534;48.100;11.584;2023-03-03T22:06:28;21.10;54.30
42885;DHT22;28534;48.100;11.584;2023-03-03T22:11:32;21.10;53.70
42885;DHT22;28534;48.100;11.584;2023-03-03T22:16:34;21.00;53.70
42885;DHT22;28534;48.100;11.584;2023-03-03T22:21:37;21.00;53.80
42885;DHT22;28534;48.100;11.584;2023-03-03T22:26:41;21.00;53.80
42885;DHT22;28534;48.100;11.584;2023-03-03T22:31:43;21.00;53.90
42885;DHT22;28534;48.100;11.584;2023-03-03T22:36:44;21.00;53.90
42885;DHT22;28534;48.100;11.584;2023-03-03T22:41:48;21.00;54.00
42885;DHT22;28534;48.100;11.584;2023-03-03T22:46:49;21.00;54.50
42885;DHT22;28534;48.100;11.584;2023-03-03T22:51:51;21.00;54.00
42885;DHT22;28534;48.100;11.584;2023-03-03T22:56:54;20.90;54.00
42885;DHT22;28534;48.100;11.584;2023-03-03T23:01:56;20.90;54.00
42885;DHT22;28534;48.100;11.584;2023-03-03T23:06:57;20.90;54.00
42885;DHT22;28534;48.100;11.584;2023-03-03T23:12:01;20.90;54.10
42885;DHT22;28534;48.100;11.584;2023-03-03T23:17:02;20.90;54.10
42885;DHT22;28534;48.100;11.584;2023-03-03T23:22:04;20.90;54.20
42885;DHT22;28534;48.100;11.584;2023-03-03T23:27:08;20.90;54.10
42885;DHT22;28534;48.100;11.584;2023-03-03T23:32:10;20.90;54.10
42885;DHT22;28534;48.100;11.584;2023-03-03T23:37:12;21.00;54.20
42885;DHT22;28534;48.100;11.584;2023-03-03T23:42:15;20.90;54.00
42885;DHT22;28534;48.100;11.584;2023-03-03T23:47:17;20.90;54.10
42885;DHT22;28534;48.100;11.584;2023-03-03T23:52:19;20.90;54.10
42885;DHT22;28534;48.100;11.584;2023-03-03T23:57:22;20.90;54.10
